sensor_id;sensor_type;location;lat;lon;timestamp;P1;durP1;ratioP1;P2;durP2;ratioP2
17363;SDS011;8799;43.594;13.526;2022-11-10T00:02:18;22.13;;;11.67;;
17363;SDS011;8799;43.594;13.526;2022-11-10T00:04:48;23.50;;;10.97;;
17363;SDS011;8799;43.594;13.526;2022-11-10T00:07:17;22.00;;;11.13;;
17363;SDS011;8799;43.594;13.526;2022-11-10T00:09:50;21.17;;;10.60;;
17363;SDS011;8799;43.594;13.526;2022-11-10T00:12:18;20.93;;;11.57;;
17363;SDS011;8799;43.594;13.526;2022-11-10T00:14:47;22.27;;;10.70;;
17363;SDS011;8799;43.594;13.526;2022-11-10T00:17:34;23.57;;;10.90;;
17363;SDS011;8799;43.594;13.526;2022-11-10T00:20:05;22.30;;;10.67;;
17363;SDS011;8799;43.594;13.526;2022-11-10T00:22:38;19.20;;;10.13;;
17363;SDS011;8799;43.594;13.526;2022-11-10T00:25:07;20.77;;;10.60;;
17363;SDS011;8799;43.594;13.526;2022-11-10T00:27:35;24.70;;;12.43;;
17363;SDS011;8799;43.594;13.526;2022-11-10T00:30:04;21.63;;;10.10;;
17363;SDS011;8799;43.594;13.526;2022-11-10T00:32:33;23.73;;;10.63;;
17363;SDS011;8799;43.594;13.526;2022-11-10T00:35:02;20.03;;;10.77;;
17363;SDS011;8799;43.594;13.526;2022-11-10T00:37:31;20.23;;;9.70;;
17363;SDS011;8799;43.594;13.526;2022-11-10T00:40:01;20.60;;;10.57;;
17363;SDS011;8799;43.594;13.526;2022-11-10T00:42:30;18.40;;;10.20;;
17363;SDS011;8799;43.594;13.526;2022-11-10T00:44:58;20.37;;;10.80;;
17363;SDS011;8799;43.594;13.526;2022-11-10T00:47:26;25.97;;;10.20;;
17363;SDS011;8799;43.594;13.526;2022-11-10T00:49:54;17.37;;;9.60;;
17363;SDS011;8799;43.594;13.526;2022-11-10T00:52:22;16.60;;;9.77;;
17363;SDS011;8799;43.594;13.526;2022-11-10T00:54:50;15.83;;;8.77;;
17363;SDS011;8799;43.594;13.526;2022-11-10T00:57:20;16.83;;;9.73;;
17363;SDS011;8799;43.594;13.526;2022-11-10T00:59:48;18.83;;;9.10;;
17363;SDS011;8799;43.594;13.526;2022-11-10T01:02:15;15.17;;;8.63;;
17363;SDS011;8799;43.594;13.526;2022-11-10T01:04:43;19.20;;;9.17;;
17363;SDS011;8799;43.594;13.526;2022-11-10T01:07:11;15.47;;;8.20;;
17363;SDS011;8799;43.594;13.526;2022-11-10T01:09:39;16.03;;;8.70;;
17363;SDS011;8799;43.594;13.526;2022-11-10T01:12:07;21.43;;;8.80;;
17363;SDS011;8799;43.594;13.526;2022-11-10T01:14:37;18.20;;;9.17;;
17363;SDS011;8799;43.594;13.526;2022-11-10T01:17:05;15.93;;;8.63;;
17363;SDS011;8799;43.594;13.526;2022-11-10T01:19:32;14.10;;;7.80;;
17363;SDS011;8799;43.594;13.526;2022-11-10T01:22:01;19.47;;;7.93;;
17363;SDS011;8799;43.594;13.526;2022-11-10T01:24:29;15.87;;;8.20;;
17363;SDS011;8799;43.594;13.526;2022-11-10T01:26:57;16.30;;;8.50;;
17363;SDS011;8799;43.594;13.526;2022-11-10T01:29:25;16.77;;;8.40;;
17363;SDS011;8799;43.594;13.526;2022-11-10T01:31:56;15.43;;;8.37;;
17363;SDS011;8799;43.594;13.526;2022-11-10T01:34:25;16.93;;;8.57;;
17363;SDS011;8799;43.594;13.526;2022-11-10T01:36:53;15.63;;;7.57;;
17363;SDS011;8799;43.594;13.526;2022-11-10T01:39:21;17.07;;;8.70;;
17363;SDS011;8799;43.594;13.526;2022-11-10T01:41:49;14.00;;;8.00;;
17363;SDS011;8799;43.594;13.526;2022-11-10T01:44:17;16.17;;;7.97;;
17363;SDS011;8799;43.594;13.526;2022-11-10T01:46:46;17.63;;;8.57;;
17363;SDS011;8799;43.594;13.526;2022-11-10T01:49:17;17.17;;;7.57;;
17363;SDS011;8799;43.594;13.526;2022-11-10T01:51:48;14.23;;;7.50;;
17363;SDS011;8799;43.594;13.526;2022-11-10T01:54:21;14.57;;;7.13;;
17363;SDS011;8799;43.594;13.526;2022-11-10T01:56:53;14.43;;;7.53;;
17363;SDS011;8799;43.594;13.526;2022-11-10T01:59:25;15.43;;;7.97;;
17363;SDS011;8799;43.594;13.526;2022-11-10T02:02:01;14.77;;;6.80;;
17363;SDS011;8799;43.594;13.526;2022-11-10T02:04:37;15.57;;;8.27;;
17363;SDS011;8799;43.594;13.526;2022-11-10T02:07:07;17.77;;;7.40;;
17363;SDS011;8799;43.594;13.526;2022-11-10T02:09:36;17.27;;;7.57;;
17363;SDS011;8799;43.594;13.526;2022-11-10T02:12:04;16.03;;;7.47;;
17363;SDS011;8799;43.594;13.526;2022-11-10T02:14:32;16.93;;;7.30;;
17363;SDS011;8799;43.594;13.526;2022-11-10T02:17:00;14.30;;;6.67;;
17363;SDS011;8799;43.594;13.526;2022-11-10T02:19:29;15.77;;;7.40;;
17363;SDS011;8799;43.594;13.526;2022-11-10T02:22:09;13.87;;;7.33;;
17363;SDS011;8799;43.594;13.526;2022-11-10T02:24:37;14.27;;;6.73;;
17363;SDS011;8799;43.594;13.526;2022-11-10T02:27:05;13.87;;;6.43;;
17363;SDS011;8799;43.594;13.526;2022-11-10T02:29:33;15.47;;;7.00;;
17363;SDS011;8799;43.594;13.526;2022-11-10T02:32:02;12.37;;;6.07;;
17363;SDS011;8799;43.594;13.526;2022-11-10T02:34:30;11.93;;;6.57;;
17363;SDS011;8799;43.594;13.526;2022-11-10T02:36:59;13.13;;;6.63;;
17363;SDS011;8799;43.594;13.526;2022-11-10T02:39:28;12.70;;;6.63;;
17363;SDS011;8799;43.594;13.526;2022-11-10T02:41:57;13.90;;;6.73;;
17363;SDS011;8799;43.594;13.526;2022-11-10T02:44:25;11.13;;;6.27;;
17363;SDS011;8799;43.594;13.526;2022-11-10T02:46:53;11.63;;;6.77;;
17363;SDS011;8799;43.594;13.526;2022-11-10T02:49:21;15.60;;;6.20;;
17363;SDS011;8799;43.594;13.526;2022-11-10T02:51:49;10.77;;;6.20;;
17363;SDS011;8799;43.594;13.526;2022-11-10T02:54:17;11.37;;;5.77;;
17363;SDS011;8799;43.594;13.526;2022-11-10T02:56:46;10.80;;;5.97;;
17363;SDS011;8799;43.594;13.526;2022-11-10T02:59:15;10.83;;;5.90;;
17363;SDS011;8799;43.594;13.526;2022-11-10T03:01:43;10.13;;;5.70;;
17363;SDS011;8799;43.594;13.526;2022-11-10T03:04:11;9.00;;;5.90;;
17363;SDS011;8799;43.594;13.526;2022-11-10T03:06:39;9.83;;;5.97;;
17363;SDS011;8799;43.594;13.526;2022-11-10T03:09:08;10.47;;;6.07;;
17363;SDS011;8799;43.594;13.526;2022-11-10T03:11:37;8.40;;;5.13;;
17363;SDS011;8799;43.594;13.526;2022-11-10T03:14:09;10.33;;;5.60;;
17363;SDS011;8799;43.594;13.526;2022-11-10T03:16:39;10.23;;;5.23;;
17363;SDS011;8799;43.594;13.526;2022-11-10T03:19:07;9.57;;;5.77;;
17363;SDS011;8799;43.594;13.526;2022-11-10T03:21:36;9.97;;;5.27;;
17363;SDS011;8799;43.594;13.526;2022-11-10T03:24:04;9.90;;;5.10;;
17363;SDS011;8799;43.594;13.526;2022-11-10T03:26:32;7.90;;;4.70;;
17363;SDS011;8799;43.594;13.526;2022-11-10T03:29:00;11.33;;;5.03;;
17363;SDS011;8799;43.594;13.526;2022-11-10T03:31:30;10.13;;;5.50;;
17363;SDS011;8799;43.594;13.526;2022-11-10T03:33:58;9.97;;;5.20;;
17363;SDS011;8799;43.594;13.526;2022-11-10T03:36:26;12.53;;;5.60;;
17363;SDS011;8799;43.594;13.526;2022-11-10T03:38:54;9.40;;;4.97;;
17363;SDS011;8799;43.594;13.526;2022-11-10T03:41:23;8.97;;;4.70;;
17363;SDS011;8799;43.594;13.526;2022-11-10T03:43:51;11.03;;;5.30;;
17363;SDS011;8799;43.594;13.526;2022-11-10T03:46:19;12.27;;;5.50;;
17363;SDS011;8799;43.594;13.526;2022-11-10T03:48:48;9.93;;;4.90;;
17363;SDS011;8799;43.594;13.526;2022-11-10T03:51:17;9.07;;;5.13;;
17363;SDS011;8799;43.594;13.526;2022-11-10T03:53:45;7.93;;;4.30;;
17363;SDS011;8799;43.594;13.526;2022-11-10T03:56:13;9.93;;;4.73;;
17363;SDS011;8799;43.594;13.526;2022-11-10T03:58:41;8.60;;;4.87;;
17363;SDS011;8799;43.594;13.526;2022-11-10T04:01:09;10.63;;;4.87;;
17363;SDS011;8799;43.594;13.526;2022-11-10T04:03:38;9.00;;;4.63;;
17363;SDS011;8799;43.594;13.526;2022-11-10T04:06:08;10.70;;;4.60;;
17363;SDS011;8799;43.594;13.526;2022-11-10T04:08:54;9.50;;;4.83;;
17363;SDS011;8799;43.594;13.526;2022-11-10T04:11:25;8.80;;;4.47;;
17363;SDS011;8799;43.594;13.526;2022-11-10T04:14:10;9.60;;;4.87;;
17363;SDS011;8799;43.594;13.526;2022-11-10T04:16:55;9.80;;;4.53;;
17363;SDS011;8799;43.594;13.526;2022-11-10T04:19:24;9.70;;;4.80;;
17363;SDS011;8799;43.594;13.526;2022-11-10T04:21:55;14.17;;;4.53;;
17363;SDS011;8799;43.594;13.526;2022-11-10T04:24:23;12.03;;;4.23;;
17363;SDS011;8799;43.594;13.526;2022-11-10T04:26:51;10.87;;;4.70;;
17363;SDS011;8799;43.594;13.526;2022-11-10T04:29:19;9.60;;;5.03;;
17363;SDS011;8799;43.594;13.526;2022-11-10T04:31:47;9.00;;;4.30;;
17363;SDS011;8799;43.594;13.526;2022-11-10T04:34:16;9.07;;;4.23;;
17363;SDS011;8799;43.594;13.526;2022-11-10T04:36:44;6.90;;;4.30;;
17363;SDS011;8799;43.594;13.526;2022-11-10T04:39:14;7.13;;;4.30;;
17363;SDS011;8799;43.594;13.526;2022-11-10T04:41:42;9.37;;;4.10;;
17363;SDS011;8799;43.594;13.526;2022-11-10T04:44:10;9.50;;;3.97;;
17363;SDS011;8799;43.594;13.526;2022-11-10T04:46:39;7.00;;;3.60;;
17363;SDS011;8799;43.594;13.526;2022-11-10T04:49:08;7.83;;;4.47;;
17363;SDS011;8799;43.594;13.526;2022-11-10T04:51:37;9.90;;;4.57;;
17363;SDS011;8799;43.594;13.526;2022-11-10T04:54:07;6.40;;;3.90;;
17363;SDS011;8799;43.594;13.526;2022-11-10T04:56:37;9.07;;;4.20;;
17363;SDS011;8799;43.594;13.526;2022-11-10T04:59:06;12.47;;;4.53;;
17363;SDS011;8799;43.594;13.526;2022-11-10T05:01:34;8.30;;;4.10;;
17363;SDS011;8799;43.594;13.526;2022-11-10T05:04:03;8.37;;;3.70;;
17363;SDS011;8799;43.594;13.526;2022-11-10T05:06:32;9.30;;;4.13;;
17363;SDS011;8799;43.594;13.526;2022-11-10T05:09:00;6.57;;;3.30;;
17363;SDS011;8799;43.594;13.526;2022-11-10T05:11:28;7.77;;;3.33;;
17363;SDS011;8799;43.594;13.526;2022-11-10T05:13:59;6.73;;;3.43;;
17363;SDS011;8799;43.594;13.526;2022-11-10T05:16:29;7.23;;;3.80;;
17363;SDS011;8799;43.594;13.526;2022-11-10T05:18:57;7.30;;;3.83;;
17363;SDS011;8799;43.594;13.526;2022-11-10T05:21:25;6.77;;;3.50;;
17363;SDS011;8799;43.594;13.526;2022-11-10T05:23:53;6.90;;;3.80;;
17363;SDS011;8799;43.594;13.526;2022-11-10T05:26:21;6.67;;;3.27;;
17363;SDS011;8799;43.594;13.526;2022-11-10T05:28:49;6.07;;;3.30;;
17363;SDS011;8799;43.594;13.526;2022-11-10T05:31:19;11.30;;;3.20;;
17363;SDS011;8799;43.594;13.526;2022-11-10T05:33:49;6.50;;;3.53;;
17363;SDS011;8799;43.594;13.526;2022-11-10T05:36:18;7.00;;;3.87;;
17363;SDS011;8799;43.594;13.526;2022-11-10T05:38:47;6.23;;;3.13;;
17363;SDS011;8799;43.594;13.526;2022-11-10T05:41:15;6.97;;;3.37;;
17363;SDS011;8799;43.594;13.526;2022-11-10T05:43:43;9.03;;;3.40;;
17363;SDS011;8799;43.594;13.526;2022-11-10T05:46:11;6.00;;;3.30;;
17363;SDS011;8799;43.594;13.526;2022-11-10T05:48:40;5.73;;;3.20;;
17363;SDS011;8799;43.594;13.526;2022-11-10T05:51:10;5.90;;;3.30;;
17363;SDS011;8799;43.594;13.526;2022-11-10T05:53:39;6.77;;;3.83;;
17363;SDS011;8799;43.594;13.526;2022-11-10T05:56:07;6.20;;;3.30;;
17363;SDS011;8799;43.594;13.526;2022-11-10T05:58:35;6.30;;;3.37;;
17363;SDS011;8799;43.594;13.526;2022-11-10T06:01:03;6.03;;;3.43;;
17363;SDS011;8799;43.594;13.526;2022-11-10T06:03:32;7.20;;;3.30;;
17363;SDS011;8799;43.594;13.526;2022-11-10T06:06:03;4.87;;;3.23;;
17363;SDS011;8799;43.594;13.526;2022-11-10T06:08:32;6.67;;;3.50;;
17363;SDS011;8799;43.594;13.526;2022-11-10T06:11:00;7.20;;;3.50;;
17363;SDS011;8799;43.594;13.526;2022-11-10T06:13:28;6.20;;;3.47;;
17363;SDS011;8799;43.594;13.526;2022-11-10T06:15:56;8.50;;;4.00;;
17363;SDS011;8799;43.594;13.526;2022-11-10T06:18:25;8.17;;;4.30;;
17363;SDS011;8799;43.594;13.526;2022-11-10T06:20:53;9.33;;;4.80;;
17363;SDS011;8799;43.594;13.526;2022-11-10T06:23:22;9.00;;;4.07;;
17363;SDS011;8799;43.594;13.526;2022-11-10T06:25:51;7.83;;;4.30;;
17363;SDS011;8799;43.594;13.526;2022-11-10T06:28:19;7.90;;;3.97;;
17363;SDS011;8799;43.594;13.526;2022-11-10T06:30:47;8.87;;;3.70;;
17363;SDS011;8799;43.594;13.526;2022-11-10T06:33:16;9.30;;;4.17;;
17363;SDS011;8799;43.594;13.526;2022-11-10T06:35:44;10.50;;;3.83;;
17363;SDS011;8799;43.594;13.526;2022-11-10T06:38:12;7.47;;;3.60;;
17363;SDS011;8799;43.594;13.526;2022-11-10T06:40:42;7.13;;;3.70;;
17363;SDS011;8799;43.594;13.526;2022-11-10T06:43:11;10.77;;;4.27;;
17363;SDS011;8799;43.594;13.526;2022-11-10T06:45:39;8.70;;;3.60;;
17363;SDS011;8799;43.594;13.526;2022-11-10T06:48:08;11.43;;;4.10;;
17363;SDS011;8799;43.594;13.526;2022-11-10T06:50:37;8.83;;;3.77;;
17363;SDS011;8799;43.594;13.526;2022-11-10T06:53:06;9.67;;;4.40;;
17363;SDS011;8799;43.594;13.526;2022-11-10T06:55:35;13.40;;;4.23;;
17363;SDS011;8799;43.594;13.526;2022-11-10T06:58:04;11.27;;;4.10;;
17363;SDS011;8799;43.594;13.526;2022-11-10T07:00:35;5.97;;;3.40;;
17363;SDS011;8799;43.594;13.526;2022-11-10T07:03:04;6.00;;;3.60;;
17363;SDS011;8799;43.594;13.526;2022-11-10T07:05:33;6.83;;;4.23;;
17363;SDS011;8799;43.594;13.526;2022-11-10T07:08:02;6.90;;;4.07;;
17363;SDS011;8799;43.594;13.526;2022-11-10T07:10:31;9.80;;;4.00;;
17363;SDS011;8799;43.594;13.526;2022-11-10T07:13:00;10.43;;;3.90;;
17363;SDS011;8799;43.594;13.526;2022-11-10T07:15:32;8.93;;;4.27;;
17363;SDS011;8799;43.594;13.526;2022-11-10T07:18:00;9.43;;;4.30;;
17363;SDS011;8799;43.594;13.526;2022-11-10T07:20:29;8.00;;;3.83;;
17363;SDS011;8799;43.594;13.526;2022-11-10T07:22:57;8.27;;;4.17;;
17363;SDS011;8799;43.594;13.526;2022-11-10T07:25:26;9.83;;;5.00;;
17363;SDS011;8799;43.594;13.526;2022-11-10T07:27:55;12.00;;;4.60;;
17363;SDS011;8799;43.594;13.526;2022-11-10T07:30:24;7.20;;;3.80;;
17363;SDS011;8799;43.594;13.526;2022-11-10T07:33:01;8.07;;;3.60;;
17363;SDS011;8799;43.594;13.526;2022-11-10T07:35:30;8.57;;;4.33;;
17363;SDS011;8799;43.594;13.526;2022-11-10T07:38:00;8.90;;;4.80;;
17363;SDS011;8799;43.594;13.526;2022-11-10T07:40:29;14.97;;;3.97;;
17363;SDS011;8799;43.594;13.526;2022-11-10T07:42:57;7.93;;;4.17;;
17363;SDS011;8799;43.594;13.526;2022-11-10T07:45:26;8.93;;;4.17;;
17363;SDS011;8799;43.594;13.526;2022-11-10T07:47:57;9.47;;;4.33;;
17363;SDS011;8799;43.594;13.526;2022-11-10T07:50:28;8.47;;;3.93;;
17363;SDS011;8799;43.594;13.526;2022-11-10T07:53:03;8.77;;;4.50;;
17363;SDS011;8799;43.594;13.526;2022-11-10T07:55:32;9.87;;;3.83;;
17363;SDS011;8799;43.594;13.526;2022-11-10T07:58:01;11.27;;;4.03;;
17363;SDS011;8799;43.594;13.526;2022-11-10T08:00:31;10.17;;;4.27;;
17363;SDS011;8799;43.594;13.526;2022-11-10T08:03:00;10.67;;;4.03;;
17363;SDS011;8799;43.594;13.526;2022-11-10T08:05:33;7.17;;;4.10;;
17363;SDS011;8799;43.594;13.526;2022-11-10T08:08:03;6.63;;;3.50;;
17363;SDS011;8799;43.594;13.526;2022-11-10T08:10:31;9.90;;;3.97;;
17363;SDS011;8799;43.594;13.526;2022-11-10T08:13:00;11.17;;;4.10;;
17363;SDS011;8799;43.594;13.526;2022-11-10T08:15:30;8.73;;;4.23;;
17363;SDS011;8799;43.594;13.526;2022-11-10T08:18:01;10.10;;;4.00;;
17363;SDS011;8799;43.594;13.526;2022-11-10T08:20:34;10.33;;;4.27;;
17363;SDS011;8799;43.594;13.526;2022-11-10T08:23:05;8.10;;;4.10;;
17363;SDS011;8799;43.594;13.526;2022-11-10T08:25:36;8.47;;;3.80;;
17363;SDS011;8799;43.594;13.526;2022-11-10T08:28:05;11.00;;;3.77;;
17363;SDS011;8799;43.594;13.526;2022-11-10T08:30:35;6.97;;;3.50;;
17363;SDS011;8799;43.594;13.526;2022-11-10T08:33:04;7.53;;;3.70;;
17363;SDS011;8799;43.594;13.526;2022-11-10T08:35:37;6.33;;;3.60;;
17363;SDS011;8799;43.594;13.526;2022-11-10T08:38:07;6.40;;;3.33;;
17363;SDS011;8799;43.594;13.526;2022-11-10T08:40:36;13.43;;;4.27;;
17363;SDS011;8799;43.594;13.526;2022-11-10T08:43:04;10.10;;;3.87;;
17363;SDS011;8799;43.594;13.526;2022-11-10T08:45:33;11.70;;;3.60;;
17363;SDS011;8799;43.594;13.526;2022-11-10T08:48:03;8.77;;;3.23;;
17363;SDS011;8799;43.594;13.526;2022-11-10T08:50:33;6.73;;;3.33;;
17363;SDS011;8799;43.594;13.526;2022-11-10T08:53:07;9.43;;;3.40;;
17363;SDS011;8799;43.594;13.526;2022-11-10T08:55:40;7.23;;;3.60;;
17363;SDS011;8799;43.594;13.526;2022-11-10T08:58:10;8.03;;;3.80;;
17363;SDS011;8799;43.594;13.526;2022-11-10T09:00:39;6.07;;;3.17;;
17363;SDS011;8799;43.594;13.526;2022-11-10T09:03:09;7.63;;;3.43;;
17363;SDS011;8799;43.594;13.526;2022-11-10T09:05:40;6.67;;;3.33;;
17363;SDS011;8799;43.594;13.526;2022-11-10T09:08:10;9.57;;;3.27;;
17363;SDS011;8799;43.594;13.526;2022-11-10T09:10:40;10.93;;;3.73;;
17363;SDS011;8799;43.594;13.526;2022-11-10T09:13:12;7.77;;;4.60;;
17363;SDS011;8799;43.594;13.526;2022-11-10T09:15:42;11.87;;;3.50;;
17363;SDS011;8799;43.594;13.526;2022-11-10T09:18:12;6.67;;;3.17;;
17363;SDS011;8799;43.594;13.526;2022-11-10T09:20:41;8.37;;;3.60;;
17363;SDS011;8799;43.594;13.526;2022-11-10T09:23:11;6.37;;;3.07;;
17363;SDS011;8799;43.594;13.526;2022-11-10T09:25:40;6.13;;;3.23;;
17363;SDS011;8799;43.594;13.526;2022-11-10T09:28:14;11.53;;;3.60;;
17363;SDS011;8799;43.594;13.526;2022-11-10T09:30:44;8.47;;;3.67;;
17363;SDS011;8799;43.594;13.526;2022-11-10T09:33:13;7.33;;;3.63;;
17363;SDS011;8799;43.594;13.526;2022-11-10T09:35:42;10.90;;;2.87;;
17363;SDS011;8799;43.594;13.526;2022-11-10T09:38:13;6.73;;;3.20;;
17363;SDS011;8799;43.594;13.526;2022-11-10T09:40:45;8.47;;;3.50;;
17363;SDS011;8799;43.594;13.526;2022-11-10T09:43:24;5.37;;;2.87;;
17363;SDS011;8799;43.594;13.526;2022-11-10T09:45:58;5.70;;;3.20;;
17363;SDS011;8799;43.594;13.526;2022-11-10T09:48:31;7.07;;;3.43;;
17363;SDS011;8799;43.594;13.526;2022-11-10T09:51:03;7.37;;;3.50;;
17363;SDS011;8799;43.594;13.526;2022-11-10T09:53:36;7.10;;;3.30;;
17363;SDS011;8799;43.594;13.526;2022-11-10T09:56:10;5.97;;;2.83;;
17363;SDS011;8799;43.594;13.526;2022-11-10T09:58:45;9.30;;;3.50;;
17363;SDS011;8799;43.594;13.526;2022-11-10T10:01:20;6.73;;;3.23;;
17363;SDS011;8799;43.594;13.526;2022-11-10T10:03:59;5.67;;;3.07;;
17363;SDS011;8799;43.594;13.526;2022-11-10T10:06:44;7.73;;;3.70;;
17363;SDS011;8799;43.594;13.526;2022-11-10T10:09:24;8.27;;;3.57;;
17363;SDS011;8799;43.594;13.526;2022-11-10T10:12:05;6.60;;;3.37;;
17363;SDS011;8799;43.594;13.526;2022-11-10T10:14:56;4.67;;;2.87;;
17363;SDS011;8799;43.594;13.526;2022-11-10T10:17:36;7.03;;;2.73;;
17363;SDS011;8799;43.594;13.526;2022-11-10T10:20:12;13.67;;;3.50;;
17363;SDS011;8799;43.594;13.526;2022-11-10T10:22:55;6.17;;;3.20;;
17363;SDS011;8799;43.594;13.526;2022-11-10T10:25:34;6.50;;;2.73;;
17363;SDS011;8799;43.594;13.526;2022-11-10T10:28:10;6.90;;;3.03;;
17363;SDS011;8799;43.594;13.526;2022-11-10T10:30:41;5.93;;;3.20;;
17363;SDS011;8799;43.594;13.526;2022-11-10T10:33:12;5.57;;;3.27;;
17363;SDS011;8799;43.594;13.526;2022-11-10T10:35:42;6.63;;;2.90;;
17363;SDS011;8799;43.594;13.526;2022-11-10T10:38:15;7.13;;;2.90;;
17363;SDS011;8799;43.594;13.526;2022-11-10T10:40:50;4.37;;;2.70;;
17363;SDS011;8799;43.594;13.526;2022-11-10T10:43:18;7.93;;;3.60;;
17363;SDS011;8799;43.594;13.526;2022-11-10T10:46:01;5.50;;;2.90;;
17363;SDS011;8799;43.594;13.526;2022-11-10T10:48:34;9.90;;;3.00;;
17363;SDS011;8799;43.594;13.526;2022-11-10T10:51:03;6.23;;;3.10;;
17363;SDS011;8799;43.594;13.526;2022-11-10T10:53:32;4.93;;;2.83;;
17363;SDS011;8799;43.594;13.526;2022-11-10T10:56:15;6.37;;;3.37;;
17363;SDS011;8799;43.594;13.526;2022-11-10T10:58:50;5.97;;;3.07;;
17363;SDS011;8799;43.594;13.526;2022-11-10T11:01:23;6.53;;;3.20;;
17363;SDS011;8799;43.594;13.526;2022-11-10T11:03:56;8.63;;;3.63;;
17363;SDS011;8799;43.594;13.526;2022-11-10T11:06:26;11.93;;;3.63;;
17363;SDS011;8799;43.594;13.526;2022-11-10T11:08:55;5.87;;;3.53;;
17363;SDS011;8799;43.594;13.526;2022-11-10T11:11:27;7.53;;;3.97;;
17363;SDS011;8799;43.594;13.526;2022-11-10T11:16:50;8.27;;;4.33;;
17363;SDS011;8799;43.594;13.526;2022-11-10T11:19:20;9.87;;;3.73;;
17363;SDS011;8799;43.594;13.526;2022-11-10T11:22:02;9.17;;;3.67;;
17363;SDS011;8799;43.594;13.526;2022-11-10T11:24:44;10.30;;;4.80;;
17363;SDS011;8799;43.594;13.526;2022-11-10T11:27:19;9.80;;;4.83;;
17363;SDS011;8799;43.594;13.526;2022-11-10T11:29:57;9.07;;;5.10;;
17363;SDS011;8799;43.594;13.526;2022-11-10T11:35:47;9.27;;;5.50;;
17363;SDS011;8799;43.594;13.526;2022-11-10T11:38:22;12.57;;;5.47;;
17363;SDS011;8799;43.594;13.526;2022-11-10T11:41:00;13.67;;;6.23;;
17363;SDS011;8799;43.594;13.526;2022-11-10T11:46:36;13.97;;;5.77;;
17363;SDS011;8799;43.594;13.526;2022-11-10T11:49:20;11.70;;;5.40;;
17363;SDS011;8799;43.594;13.526;2022-11-10T11:52:10;11.50;;;5.87;;
17363;SDS011;8799;43.594;13.526;2022-11-10T11:55:01;11.13;;;5.63;;
17363;SDS011;8799;43.594;13.526;2022-11-10T11:58:02;13.00;;;6.17;;
17363;SDS011;8799;43.594;13.526;2022-11-10T12:00:50;11.03;;;5.70;;
17363;SDS011;8799;43.594;13.526;2022-11-10T12:06:23;10.20;;;6.00;;
17363;SDS011;8799;43.594;13.526;2022-11-10T12:09:04;10.40;;;6.13;;
17363;SDS011;8799;43.594;13.526;2022-11-10T12:11:43;12.27;;;6.20;;
17363;SDS011;8799;43.594;13.526;2022-11-10T12:14:28;13.43;;;7.10;;
17363;SDS011;8799;43.594;13.526;2022-11-10T12:17:20;11.43;;;6.67;;
17363;SDS011;8799;43.594;13.526;2022-11-10T12:19:55;11.17;;;6.67;;
17363;SDS011;8799;43.594;13.526;2022-11-10T12:22:33;16.30;;;6.97;;
17363;SDS011;8799;43.594;13.526;2022-11-10T12:25:12;10.97;;;6.47;;
17363;SDS011;8799;43.594;13.526;2022-11-10T12:27:49;14.90;;;7.33;;
17363;SDS011;8799;43.594;13.526;2022-11-10T12:30:22;12.70;;;7.30;;
17363;SDS011;8799;43.594;13.526;2022-11-10T12:32:53;15.27;;;8.00;;
17363;SDS011;8799;43.594;13.526;2022-11-10T12:35:28;16.60;;;7.20;;
17363;SDS011;8799;43.594;13.526;2022-11-10T12:38:00;12.93;;;7.43;;
17363;SDS011;8799;43.594;13.526;2022-11-10T12:40:35;15.63;;;7.43;;
17363;SDS011;8799;43.594;13.526;2022-11-10T12:43:06;15.13;;;7.10;;
17363;SDS011;8799;43.594;13.526;2022-11-10T12:45:43;14.60;;;7.47;;
17363;SDS011;8799;43.594;13.526;2022-11-10T12:48:14;14.80;;;7.87;;
17363;SDS011;8799;43.594;13.526;2022-11-10T12:50:47;17.13;;;8.30;;
17363;SDS011;8799;43.594;13.526;2022-11-10T12:53:19;14.40;;;7.60;;
17363;SDS011;8799;43.594;13.526;2022-11-10T12:55:49;14.37;;;7.67;;
17363;SDS011;8799;43.594;13.526;2022-11-10T12:58:22;14.00;;;7.83;;
17363;SDS011;8799;43.594;13.526;2022-11-10T13:00:56;17.30;;;8.17;;
17363;SDS011;8799;43.594;13.526;2022-11-10T13:03:29;14.30;;;7.43;;
17363;SDS011;8799;43.594;13.526;2022-11-10T13:06:00;14.33;;;7.67;;
17363;SDS011;8799;43.594;13.526;2022-11-10T13:08:30;14.23;;;8.10;;
17363;SDS011;8799;43.594;13.526;2022-11-10T13:11:00;14.33;;;7.70;;
17363;SDS011;8799;43.594;13.526;2022-11-10T13:13:42;14.47;;;7.23;;
17363;SDS011;8799;43.594;13.526;2022-11-10T13:31:39;11.63;;;7.03;;
17363;SDS011;8799;43.594;13.526;2022-11-10T13:34:26;16.63;;;7.57;;
17363;SDS011;8799;43.594;13.526;2022-11-10T13:37:01;12.60;;;7.53;;
17363;SDS011;8799;43.594;13.526;2022-11-10T13:39:32;13.77;;;7.50;;
17363;SDS011;8799;43.594;13.526;2022-11-10T13:42:01;14.67;;;7.87;;
17363;SDS011;8799;43.594;13.526;2022-11-10T13:44:43;14.30;;;8.30;;
17363;SDS011;8799;43.594;13.526;2022-11-10T13:50:19;13.37;;;7.80;;
17363;SDS011;8799;43.594;13.526;2022-11-10T13:53:00;15.07;;;8.50;;
17363;SDS011;8799;43.594;13.526;2022-11-10T13:55:44;14.47;;;7.97;;
17363;SDS011;8799;43.594;13.526;2022-11-10T13:58:22;13.73;;;7.87;;
17363;SDS011;8799;43.594;13.526;2022-11-10T14:03:51;15.20;;;8.13;;
17363;SDS011;8799;43.594;13.526;2022-11-10T14:06:25;12.53;;;7.30;;
17363;SDS011;8799;43.594;13.526;2022-11-10T14:08:59;13.50;;;8.27;;
17363;SDS011;8799;43.594;13.526;2022-11-10T14:11:34;14.60;;;8.53;;
17363;SDS011;8799;43.594;13.526;2022-11-10T14:14:09;18.03;;;9.20;;
17363;SDS011;8799;43.594;13.526;2022-11-10T14:16:41;16.73;;;8.67;;
17363;SDS011;8799;43.594;13.526;2022-11-10T14:19:18;16.37;;;9.20;;
17363;SDS011;8799;43.594;13.526;2022-11-10T14:21:56;19.43;;;8.30;;
17363;SDS011;8799;43.594;13.526;2022-11-10T14:24:27;17.07;;;8.83;;
17363;SDS011;8799;43.594;13.526;2022-11-10T14:27:04;17.77;;;8.40;;
17363;SDS011;8799;43.594;13.526;2022-11-10T14:29:33;19.80;;;8.80;;
17363;SDS011;8799;43.594;13.526;2022-11-10T14:32:05;15.33;;;8.77;;
17363;SDS011;8799;43.594;13.526;2022-11-10T14:34:43;14.90;;;8.73;;
17363;SDS011;8799;43.594;13.526;2022-11-10T14:37:22;15.60;;;8.53;;
17363;SDS011;8799;43.594;13.526;2022-11-10T14:39:52;17.07;;;8.43;;
17363;SDS011;8799;43.594;13.526;2022-11-10T14:42:25;18.10;;;9.00;;
17363;SDS011;8799;43.594;13.526;2022-11-10T14:45:05;15.93;;;9.13;;
17363;SDS011;8799;43.594;13.526;2022-11-10T14:47:41;16.77;;;9.03;;
17363;SDS011;8799;43.594;13.526;2022-11-10T14:50:17;16.00;;;9.13;;
17363;SDS011;8799;43.594;13.526;2022-11-10T14:52:48;15.70;;;9.47;;
17363;SDS011;8799;43.594;13.526;2022-11-10T14:55:21;16.13;;;9.13;;
17363;SDS011;8799;43.594;13.526;2022-11-10T14:57:56;16.17;;;9.23;;
17363;SDS011;8799;43.594;13.526;2022-11-10T15:00:33;16.37;;;8.70;;
17363;SDS011;8799;43.594;13.526;2022-11-10T15:03:03;16.07;;;9.50;;
17363;SDS011;8799;43.594;13.526;2022-11-10T15:05:33;19.93;;;9.43;;
17363;SDS011;8799;43.594;13.526;2022-11-10T15:08:02;14.27;;;8.93;;
17363;SDS011;8799;43.594;13.526;2022-11-10T15:10:41;21.47;;;9.33;;
17363;SDS011;8799;43.594;13.526;2022-11-10T15:13:34;16.03;;;9.53;;
17363;SDS011;8799;43.594;13.526;2022-11-10T15:16:19;16.77;;;9.10;;
17363;SDS011;8799;43.594;13.526;2022-11-10T15:18:49;20.33;;;9.40;;
17363;SDS011;8799;43.594;13.526;2022-11-10T15:21:19;21.30;;;10.20;;
17363;SDS011;8799;43.594;13.526;2022-11-10T15:23:51;17.37;;;9.63;;
17363;SDS011;8799;43.594;13.526;2022-11-10T15:26:23;16.23;;;8.63;;
17363;SDS011;8799;43.594;13.526;2022-11-10T15:28:54;17.13;;;8.97;;
17363;SDS011;8799;43.594;13.526;2022-11-10T15:31:22;17.40;;;9.80;;
17363;SDS011;8799;43.594;13.526;2022-11-10T15:33:51;18.50;;;9.50;;
17363;SDS011;8799;43.594;13.526;2022-11-10T15:36:26;18.37;;;9.03;;
17363;SDS011;8799;43.594;13.526;2022-11-10T15:39:01;15.90;;;8.63;;
17363;SDS011;8799;43.594;13.526;2022-11-10T15:41:33;15.20;;;8.50;;